sensor_id;sensor_type;location;lat;lon;timestamp;P1;durP1;ratioP1;P2;durP2;ratioP2
3625;SDS011;1827;50.534;8.316;2023-07-09T00:01:40;23.33;;;6.83;;
3625;SDS011;1827;50.534;8.316;2023-07-09T00:04:09;21.63;;;6.60;;
3625;SDS011;1827;50.534;8.316;2023-07-09T00:06:35;22.03;;;7.00;;
3625;SDS011;1827;50.534;8.316;2023-07-09T00:09:02;22.60;;;7.00;;
3625;SDS011;1827;50.534;8.316;2023-07-09T00:11:30;24.37;;;7.53;;
3625;SDS011;1827;50.534;8.316;2023-07-09T00:13:59;25.47;;;8.30;;
3625;SDS011;1827;50.534;8.316;2023-07-09T00:16:27;21.97;;;7.10;;
3625;SDS011;1827;50.534;8.316;2023-07-09T00:19:12;25.07;;;7.60;;
3625;SDS011;1827;50.534;8.316;2023-07-09T00:21:42;30.63;;;7.57;;
3625;SDS011;1827;50.534;8.316;2023-07-09T00:24:12;28.80;;;7.07;;
3625;SDS011;1827;50.534;8.316;2023-07-09T00:26:38;24.63;;;7.30;;
3625;SDS011;1827;50.534;8.316;2023-07-09T00:29:09;31.20;;;7.67;;
3625;SDS011;1827;50.534;8.316;2023-07-09T00:31:36;24.17;;;7.07;;
3625;SDS011;1827;50.534;8.316;2023-07-09T00:34:08;21.90;;;6.43;;
3625;SDS011;1827;50.534;8.316;2023-07-09T00:36:39;23.70;;;7.37;;
3625;SDS011;1827;50.534;8.316;2023-07-09T00:39:18;23.50;;;6.77;;
3625;SDS011;1827;50.534;8.316;2023-07-09T00:41:49;24.63;;;7.47;;
3625;SDS011;1827;50.534;8.316;2023-07-09T00:44:31;24.50;;;7.53;;
3625;SDS011;1827;50.534;8.316;2023-07-09T00:49:33;24.30;;;7.00;;
3625;SDS011;1827;50.534;8.316;2023-07-09T00:52:22;29.67;;;7.53;;
3625;SDS011;1827;50.534;8.316;2023-07-09T00:55:08;27.60;;;7.13;;
3625;SDS011;1827;50.534;8.316;2023-07-09T00:57:40;25.63;;;7.33;;
3625;SDS011;1827;50.534;8.316;2023-07-09T01:00:09;23.83;;;7.47;;
3625;SDS011;1827;50.534;8.316;2023-07-09T01:02:39;25.13;;;7.10;;
3625;SDS011;1827;50.534;8.316;2023-07-09T01:05:09;23.10;;;6.97;;
3625;SDS011;1827;50.534;8.316;2023-07-09T01:07:37;27.57;;;7.23;;
3625;SDS011;1827;50.534;8.316;2023-07-09T01:10:13;22.63;;;7.10;;
3625;SDS011;1827;50.534;8.316;2023-07-09T01:12:40;22.10;;;7.00;;
3625;SDS011;1827;50.534;8.316;2023-07-09T01:15:07;23.57;;;7.70;;
3625;SDS011;1827;50.534;8.316;2023-07-09T01:17:36;23.37;;;7.80;;
3625;SDS011;1827;50.534;8.316;2023-07-09T01:20:02;24.90;;;7.87;;
3625;SDS011;1827;50.534;8.316;2023-07-09T01:22:32;22.27;;;7.10;;
3625;SDS011;1827;50.534;8.316;2023-07-09T01:27:42;25.50;;;7.93;;
3625;SDS011;1827;50.534;8.316;2023-07-09T01:30:13;25.00;;;7.40;;
3625;SDS011;1827;50.534;8.316;2023-07-09T01:32:51;25.40;;;7.80;;
3625;SDS011;1827;50.534;8.316;2023-07-09T01:35:21;25.70;;;8.00;;
3625;SDS011;1827;50.534;8.316;2023-07-09T01:37:47;25.30;;;7.57;;
3625;SDS011;1827;50.534;8.316;2023-07-09T01:40:14;24.53;;;7.50;;
3625;SDS011;1827;50.534;8.316;2023-07-09T01:42:42;24.67;;;7.50;;
3625;SDS011;1827;50.534;8.316;2023-07-09T01:45:11;24.90;;;7.87;;
3625;SDS011;1827;50.534;8.316;2023-07-09T01:47:40;23.83;;;7.53;;
3625;SDS011;1827;50.534;8.316;2023-07-09T01:50:10;24.83;;;7.43;;
3625;SDS011;1827;50.534;8.316;2023-07-09T01:52:37;22.70;;;6.77;;
3625;SDS011;1827;50.534;8.316;2023-07-09T01:55:06;23.03;;;7.07;;
3625;SDS011;1827;50.534;8.316;2023-07-09T01:57:36;25.63;;;7.87;;
3625;SDS011;1827;50.534;8.316;2023-07-09T02:00:07;23.90;;;7.90;;
3625;SDS011;1827;50.534;8.316;2023-07-09T02:02:39;25.17;;;8.40;;
3625;SDS011;1827;50.534;8.316;2023-07-09T02:05:17;21.70;;;6.90;;
3625;SDS011;1827;50.534;8.316;2023-07-09T02:07:45;23.43;;;7.30;;
3625;SDS011;1827;50.534;8.316;2023-07-09T02:10:12;28.20;;;8.00;;
3625;SDS011;1827;50.534;8.316;2023-07-09T02:12:39;26.57;;;7.87;;
3625;SDS011;1827;50.534;8.316;2023-07-09T02:15:05;26.17;;;8.40;;
3625;SDS011;1827;50.534;8.316;2023-07-09T02:17:35;23.17;;;7.87;;
3625;SDS011;1827;50.534;8.316;2023-07-09T02:20:02;25.07;;;8.03;;
3625;SDS011;1827;50.534;8.316;2023-07-09T02:22:30;29.57;;;7.50;;
3625;SDS011;1827;50.534;8.316;2023-07-09T02:25:00;24.07;;;8.07;;
3625;SDS011;1827;50.534;8.316;2023-07-09T02:27:29;24.83;;;8.07;;
3625;SDS011;1827;50.534;8.316;2023-07-09T02:29:55;25.77;;;7.77;;
3625;SDS011;1827;50.534;8.316;2023-07-09T02:32:22;31.53;;;7.47;;
3625;SDS011;1827;50.534;8.316;2023-07-09T02:34:54;24.27;;;7.20;;
3625;SDS011;1827;50.534;8.316;2023-07-09T02:37:22;27.03;;;8.27;;
3625;SDS011;1827;50.534;8.316;2023-07-09T02:39:52;23.00;;;7.60;;
3625;SDS011;1827;50.534;8.316;2023-07-09T02:42:21;28.47;;;7.77;;
3625;SDS011;1827;50.534;8.316;2023-07-09T02:44:52;26.20;;;9.10;;
3625;SDS011;1827;50.534;8.316;2023-07-09T02:47:24;24.43;;;7.30;;
3625;SDS011;1827;50.534;8.316;2023-07-09T02:49:51;26.13;;;8.00;;
3625;SDS011;1827;50.534;8.316;2023-07-09T02:52:17;28.10;;;7.57;;
3625;SDS011;1827;50.534;8.316;2023-07-09T02:54:54;21.80;;;6.80;;
3625;SDS011;1827;50.534;8.316;2023-07-09T02:57:19;32.40;;;8.10;;
3625;SDS011;1827;50.534;8.316;2023-07-09T02:59:54;26.27;;;7.37;;
3625;SDS011;1827;50.534;8.316;2023-07-09T03:02:20;26.63;;;7.10;;
3625;SDS011;1827;50.534;8.316;2023-07-09T03:04:48;28.10;;;7.87;;
3625;SDS011;1827;50.534;8.316;2023-07-09T03:07:14;23.33;;;7.50;;
3625;SDS011;1827;50.534;8.316;2023-07-09T03:09:40;21.20;;;7.20;;
3625;SDS011;1827;50.534;8.316;2023-07-09T03:12:12;28.37;;;7.77;;
3625;SDS011;1827;50.534;8.316;2023-07-09T03:14:40;23.50;;;7.30;;
3625;SDS011;1827;50.534;8.316;2023-07-09T03:17:06;23.50;;;7.27;;
3625;SDS011;1827;50.534;8.316;2023-07-09T03:19:32;26.37;;;7.10;;
3625;SDS011;1827;50.534;8.316;2023-07-09T03:21:59;22.23;;;7.37;;
3625;SDS011;1827;50.534;8.316;2023-07-09T03:24:27;23.97;;;7.83;;
3625;SDS011;1827;50.534;8.316;2023-07-09T03:26:53;27.93;;;7.20;;
3625;SDS011;1827;50.534;8.316;2023-07-09T03:29:22;24.83;;;7.70;;
3625;SDS011;1827;50.534;8.316;2023-07-09T03:31:48;25.50;;;8.57;;
3625;SDS011;1827;50.534;8.316;2023-07-09T03:34:19;23.63;;;8.40;;
3625;SDS011;1827;50.534;8.316;2023-07-09T03:36:50;26.00;;;7.83;;
3625;SDS011;1827;50.534;8.316;2023-07-09T03:39:16;23.10;;;6.87;;
3625;SDS011;1827;50.534;8.316;2023-07-09T03:41:44;23.07;;;7.77;;
3625;SDS011;1827;50.534;8.316;2023-07-09T03:44:17;24.33;;;7.80;;
3625;SDS011;1827;50.534;8.316;2023-07-09T03:46:43;22.23;;;7.63;;
3625;SDS011;1827;50.534;8.316;2023-07-09T03:49:09;24.27;;;7.40;;
3625;SDS011;1827;50.534;8.316;2023-07-09T03:51:35;22.17;;;6.93;;
3625;SDS011;1827;50.534;8.316;2023-07-09T03:54:01;25.27;;;7.40;;
3625;SDS011;1827;50.534;8.316;2023-07-09T03:56:35;24.37;;;7.20;;
3625;SDS011;1827;50.534;8.316;2023-07-09T03:59:02;23.20;;;7.30;;
3625;SDS011;1827;50.534;8.316;2023-07-09T04:01:34;25.10;;;7.10;;
3625;SDS011;1827;50.534;8.316;2023-07-09T04:04:00;22.40;;;7.07;;
3625;SDS011;1827;50.534;8.316;2023-07-09T04:06:26;22.80;;;7.40;;
3625;SDS011;1827;50.534;8.316;2023-07-09T04:08:54;26.80;;;7.60;;
3625;SDS011;1827;50.534;8.316;2023-07-09T04:11:20;26.70;;;7.27;;
3625;SDS011;1827;50.534;8.316;2023-07-09T04:13:46;23.13;;;7.53;;
3625;SDS011;1827;50.534;8.316;2023-07-09T04:16:15;21.37;;;7.00;;
3625;SDS011;1827;50.534;8.316;2023-07-09T04:18:44;23.57;;;6.90;;
3625;SDS011;1827;50.534;8.316;2023-07-09T04:21:12;26.30;;;7.50;;
3625;SDS011;1827;50.534;8.316;2023-07-09T04:23:38;24.67;;;7.83;;
3625;SDS011;1827;50.534;8.316;2023-07-09T04:26:05;21.77;;;6.97;;
3625;SDS011;1827;50.534;8.316;2023-07-09T04:28:34;24.10;;;7.00;;
3625;SDS011;1827;50.534;8.316;2023-07-09T04:31:18;26.20;;;7.03;;
3625;SDS011;1827;50.534;8.316;2023-07-09T04:33:51;26.07;;;7.80;;
3625;SDS011;1827;50.534;8.316;2023-07-09T04:36:20;29.87;;;6.80;;
3625;SDS011;1827;50.534;8.316;2023-07-09T04:38:47;27.13;;;7.50;;
3625;SDS011;1827;50.534;8.316;2023-07-09T04:41:13;27.90;;;7.80;;
3625;SDS011;1827;50.534;8.316;2023-07-09T04:43:41;27.20;;;8.20;;
3625;SDS011;1827;50.534;8.316;2023-07-09T04:46:09;22.10;;;7.20;;
3625;SDS011;1827;50.534;8.316;2023-07-09T04:48:38;33.23;;;7.57;;
3625;SDS011;1827;50.534;8.316;2023-07-09T04:51:06;22.33;;;6.77;;
3625;SDS011;1827;50.534;8.316;2023-07-09T04:53:32;24.63;;;6.90;;
3625;SDS011;1827;50.534;8.316;2023-07-09T04:55:58;25.37;;;7.00;;
3625;SDS011;1827;50.534;8.316;2023-07-09T04:58:23;26.93;;;7.77;;
3625;SDS011;1827;50.534;8.316;2023-07-09T05:00:49;25.47;;;7.47;;
3625;SDS011;1827;50.534;8.316;2023-07-09T05:03:16;23.80;;;8.00;;
3625;SDS011;1827;50.534;8.316;2023-07-09T05:05:44;21.83;;;7.07;;
3625;SDS011;1827;50.534;8.316;2023-07-09T05:08:13;22.50;;;7.93;;
3625;SDS011;1827;50.534;8.316;2023-07-09T05:10:43;24.77;;;7.30;;
3625;SDS011;1827;50.534;8.316;2023-07-09T05:13:09;26.00;;;7.97;;
3625;SDS011;1827;50.534;8.316;2023-07-09T05:15:40;28.27;;;7.93;;
3625;SDS011;1827;50.534;8.316;2023-07-09T05:18:13;24.37;;;7.57;;
3625;SDS011;1827;50.534;8.316;2023-07-09T05:20:41;25.70;;;8.23;;
3625;SDS011;1827;50.534;8.316;2023-07-09T05:23:10;22.83;;;7.03;;
3625;SDS011;1827;50.534;8.316;2023-07-09T05:25:42;20.33;;;6.60;;
3625;SDS011;1827;50.534;8.316;2023-07-09T05:28:11;28.00;;;7.13;;
3625;SDS011;1827;50.534;8.316;2023-07-09T05:30:39;25.63;;;7.33;;
3625;SDS011;1827;50.534;8.316;2023-07-09T05:33:06;25.70;;;7.10;;
3625;SDS011;1827;50.534;8.316;2023-07-09T05:35:35;21.50;;;6.90;;
3625;SDS011;1827;50.534;8.316;2023-07-09T05:38:04;33.03;;;6.93;;
3625;SDS011;1827;50.534;8.316;2023-07-09T05:40:33;22.40;;;6.77;;
3625;SDS011;1827;50.534;8.316;2023-07-09T05:42:59;22.50;;;6.23;;
3625;SDS011;1827;50.534;8.316;2023-07-09T05:45:24;25.90;;;7.70;;
3625;SDS011;1827;50.534;8.316;2023-07-09T05:47:50;22.33;;;6.47;;
3625;SDS011;1827;50.534;8.316;2023-07-09T05:50:25;20.60;;;6.27;;
3625;SDS011;1827;50.534;8.316;2023-07-09T05:52:54;20.80;;;6.40;;
3625;SDS011;1827;50.534;8.316;2023-07-09T05:55:20;21.30;;;5.73;;
3625;SDS011;1827;50.534;8.316;2023-07-09T05:57:46;27.33;;;6.90;;
3625;SDS011;1827;50.534;8.316;2023-07-09T06:00:12;21.70;;;6.43;;
3625;SDS011;1827;50.534;8.316;2023-07-09T06:02:43;23.00;;;6.40;;
3625;SDS011;1827;50.534;8.316;2023-07-09T06:05:11;21.80;;;6.40;;
3625;SDS011;1827;50.534;8.316;2023-07-09T06:07:37;23.87;;;5.90;;
3625;SDS011;1827;50.534;8.316;2023-07-09T06:10:07;19.20;;;5.50;;
3625;SDS011;1827;50.534;8.316;2023-07-09T06:12:34;20.00;;;5.90;;
3625;SDS011;1827;50.534;8.316;2023-07-09T06:15:00;21.20;;;6.30;;
3625;SDS011;1827;50.534;8.316;2023-07-09T06:17:26;18.60;;;5.50;;
3625;SDS011;1827;50.534;8.316;2023-07-09T06:19:51;17.50;;;5.37;;
3625;SDS011;1827;50.534;8.316;2023-07-09T06:22:20;18.80;;;5.83;;
3625;SDS011;1827;50.534;8.316;2023-07-09T06:24:48;15.90;;;4.97;;
3625;SDS011;1827;50.534;8.316;2023-07-09T06:27:17;21.23;;;5.40;;
3625;SDS011;1827;50.534;8.316;2023-07-09T06:29:46;18.00;;;5.90;;
3625;SDS011;1827;50.534;8.316;2023-07-09T06:32:12;16.17;;;4.93;;
3625;SDS011;1827;50.534;8.316;2023-07-09T06:34:40;18.77;;;5.73;;
3625;SDS011;1827;50.534;8.316;2023-07-09T06:37:08;18.20;;;5.20;;
3625;SDS011;1827;50.534;8.316;2023-07-09T06:39:35;18.37;;;6.30;;
3625;SDS011;1827;50.534;8.316;2023-07-09T06:42:01;18.40;;;5.60;;
3625;SDS011;1827;50.534;8.316;2023-07-09T06:44:53;16.60;;;4.90;;
3625;SDS011;1827;50.534;8.316;2023-07-09T06:47:25;17.53;;;5.30;;
3625;SDS011;1827;50.534;8.316;2023-07-09T06:49:50;23.73;;;5.40;;
3625;SDS011;1827;50.534;8.316;2023-07-09T06:52:16;19.23;;;5.60;;
3625;SDS011;1827;50.534;8.316;2023-07-09T06:54:42;19.27;;;5.10;;
3625;SDS011;1827;50.534;8.316;2023-07-09T06:57:08;19.07;;;5.13;;
3625;SDS011;1827;50.534;8.316;2023-07-09T06:59:34;17.80;;;5.23;;
3625;SDS011;1827;50.534;8.316;2023-07-09T07:02:00;17.07;;;5.00;;
3625;SDS011;1827;50.534;8.316;2023-07-09T07:04:26;14.93;;;4.40;;
3625;SDS011;1827;50.534;8.316;2023-07-09T07:06:54;15.50;;;4.30;;
3625;SDS011;1827;50.534;8.316;2023-07-09T07:09:23;21.10;;;5.10;;
3625;SDS011;1827;50.534;8.316;2023-07-09T07:11:49;22.27;;;5.50;;
3625;SDS011;1827;50.534;8.316;2023-07-09T07:14:15;19.17;;;4.90;;
3625;SDS011;1827;50.534;8.316;2023-07-09T07:16:41;19.93;;;5.10;;
3625;SDS011;1827;50.534;8.316;2023-07-09T07:19:07;16.67;;;4.50;;
3625;SDS011;1827;50.534;8.316;2023-07-09T07:21:32;17.73;;;4.77;;
3625;SDS011;1827;50.534;8.316;2023-07-09T07:24:03;15.60;;;4.53;;
3625;SDS011;1827;50.534;8.316;2023-07-09T07:26:30;23.17;;;5.07;;
3625;SDS011;1827;50.534;8.316;2023-07-09T07:28:55;23.93;;;5.17;;
3625;SDS011;1827;50.534;8.316;2023-07-09T07:31:21;18.37;;;5.00;;
3625;SDS011;1827;50.534;8.316;2023-07-09T07:33:47;16.80;;;5.43;;
3625;SDS011;1827;50.534;8.316;2023-07-09T07:36:13;18.50;;;5.13;;
3625;SDS011;1827;50.534;8.316;2023-07-09T07:38:39;16.23;;;4.93;;
3625;SDS011;1827;50.534;8.316;2023-07-09T07:41:05;22.00;;;5.67;;
3625;SDS011;1827;50.534;8.316;2023-07-09T07:43:32;16.60;;;5.10;;
3625;SDS011;1827;50.534;8.316;2023-07-09T07:46:01;17.70;;;4.90;;
3625;SDS011;1827;50.534;8.316;2023-07-09T07:48:30;18.97;;;4.63;;
3625;SDS011;1827;50.534;8.316;2023-07-09T07:51:04;19.17;;;4.50;;
3625;SDS011;1827;50.534;8.316;2023-07-09T07:53:30;16.97;;;4.40;;
3625;SDS011;1827;50.534;8.316;2023-07-09T07:56:03;18.00;;;5.10;;
3625;SDS011;1827;50.534;8.316;2023-07-09T07:58:39;15.90;;;4.53;;
3625;SDS011;1827;50.534;8.316;2023-07-09T08:01:14;14.70;;;4.17;;
3625;SDS011;1827;50.534;8.316;2023-07-09T08:03:47;22.63;;;4.30;;
3625;SDS011;1827;50.534;8.316;2023-07-09T08:06:20;14.20;;;4.10;;
3625;SDS011;1827;50.534;8.316;2023-07-09T08:08:49;17.97;;;4.40;;
3625;SDS011;1827;50.534;8.316;2023-07-09T08:11:18;14.20;;;4.30;;
3625;SDS011;1827;50.534;8.316;2023-07-09T08:13:47;17.07;;;4.00;;
3625;SDS011;1827;50.534;8.316;2023-07-09T08:16:13;19.00;;;4.43;;
3625;SDS011;1827;50.534;8.316;2023-07-09T08:18:39;15.30;;;4.13;;
3625;SDS011;1827;50.534;8.316;2023-07-09T08:21:04;17.17;;;4.30;;
3625;SDS011;1827;50.534;8.316;2023-07-09T08:23:30;13.77;;;3.90;;
3625;SDS011;1827;50.534;8.316;2023-07-09T08:25:57;15.03;;;3.90;;
3625;SDS011;1827;50.534;8.316;2023-07-09T08:28:27;17.10;;;3.87;;
3625;SDS011;1827;50.534;8.316;2023-07-09T08:30:54;18.57;;;3.87;;
3625;SDS011;1827;50.534;8.316;2023-07-09T08:33:20;15.60;;;4.10;;
3625;SDS011;1827;50.534;8.316;2023-07-09T08:35:48;16.53;;;3.63;;
3625;SDS011;1827;50.534;8.316;2023-07-09T08:38:17;17.97;;;3.97;;
3625;SDS011;1827;50.534;8.316;2023-07-09T08:41:28;16.30;;;3.83;;
3625;SDS011;1827;50.534;8.316;2023-07-09T08:49:18;14.53;;;3.93;;
3625;SDS011;1827;50.534;8.316;2023-07-09T08:51:52;13.33;;;3.70;;
3625;SDS011;1827;50.534;8.316;2023-07-09T08:54:24;16.17;;;3.93;;
3625;SDS011;1827;50.534;8.316;2023-07-09T08:56:53;13.93;;;4.00;;
3625;SDS011;1827;50.534;8.316;2023-07-09T08:59:20;17.37;;;3.63;;
3625;SDS011;1827;50.534;8.316;2023-07-09T09:01:50;16.03;;;4.23;;
3625;SDS011;1827;50.534;8.316;2023-07-09T09:04:21;13.67;;;4.10;;
3625;SDS011;1827;50.534;8.316;2023-07-09T09:07:02;12.77;;;4.03;;
3625;SDS011;1827;50.534;8.316;2023-07-09T09:09:50;14.63;;;3.60;;
3625;SDS011;1827;50.534;8.316;2023-07-09T09:12:24;15.80;;;4.20;;
3625;SDS011;1827;50.534;8.316;2023-07-09T09:14:57;16.13;;;4.37;;
3625;SDS011;1827;50.534;8.316;2023-07-09T09:17:26;13.47;;;3.77;;
3625;SDS011;1827;50.534;8.316;2023-07-09T09:19:56;14.03;;;3.73;;
3625;SDS011;1827;50.534;8.316;2023-07-09T09:22:36;13.80;;;3.77;;
3625;SDS011;1827;50.534;8.316;2023-07-09T09:25:27;13.27;;;3.73;;
3625;SDS011;1827;50.534;8.316;2023-07-09T09:27:58;15.90;;;3.70;;
3625;SDS011;1827;50.534;8.316;2023-07-09T09:30:28;13.30;;;4.00;;
3625;SDS011;1827;50.534;8.316;2023-07-09T09:32:56;12.90;;;3.60;;
3625;SDS011;1827;50.534;8.316;2023-07-09T09:35:28;12.80;;;3.70;;
3625;SDS011;1827;50.534;8.316;2023-07-09T09:37:59;12.93;;;3.87;;
3625;SDS011;1827;50.534;8.316;2023-07-09T09:40:29;16.90;;;3.63;;
3625;SDS011;1827;50.534;8.316;2023-07-09T09:43:02;13.57;;;3.23;;
3625;SDS011;1827;50.534;8.316;2023-07-09T09:45:38;14.00;;;4.00;;
3625;SDS011;1827;50.534;8.316;2023-07-09T09:48:25;14.40;;;3.90;;
3625;SDS011;1827;50.534;8.316;2023-07-09T09:50:54;14.93;;;3.63;;
3625;SDS011;1827;50.534;8.316;2023-07-09T09:53:27;12.13;;;3.23;;
3625;SDS011;1827;50.534;8.316;2023-07-09T09:55:55;14.07;;;3.80;;
3625;SDS011;1827;50.534;8.316;2023-07-09T09:58:26;12.40;;;3.57;;
3625;SDS011;1827;50.534;8.316;2023-07-09T10:00:55;12.73;;;3.70;;
3625;SDS011;1827;50.534;8.316;2023-07-09T10:03:32;14.60;;;3.50;;
3625;SDS011;1827;50.534;8.316;2023-07-09T10:06:00;11.20;;;3.00;;
3625;SDS011;1827;50.534;8.316;2023-07-09T10:13:55;12.50;;;3.43;;
3625;SDS011;1827;50.534;8.316;2023-07-09T10:16:30;12.87;;;2.80;;
